Time;durP1;ratioP1;P1;durP2;ratioP2;P2;SDS_P1;SDS_P2;PMS_P1;PMS_P2;Temp;Humidity;BMP_temperature;BMP_pressure;BME280_temperature;BME280_humidity;BME280_pressure;Samples;Min_cycle;Max_cycle;Signal;HPM_P1;HPM_P2
2023/07/24 04:04:42;;;;;;;5.67;2.90;;;17.00;99.90;;;;;;6148391;23;20435;-82
2023/07/24 04:07:08;;;;;;;4.37;2.30;;;17.10;99.90;;;;;;4919913;29;20472;-71
2023/07/24 04:09:34;;;;;;;4.53;3.50;;;17.10;99.90;;;;;;4922064;29;20757;-71
2023/07/24 04:12:01;;;;;;;3.70;3.27;;;17.20;99.90;;;;;;4939071;29;20185;-71
2023/07/24 04:14:26;;;;;;;4.43;3.50;;;17.30;99.90;;;;;;4936128;29;20179;-74
2023/07/24 04:16:52;;;;;;;5.40;3.13;;;17.30;99.90;;;;;;4919287;29;20617;-74
2023/07/24 04:19:17;;;;;;;4.83;2.70;;;17.40;99.90;;;;;;4919347;29;20215;-72
2023/07/24 04:21:43;;;;;;;7.00;3.23;;;17.40;99.90;;;;;;4919968;29;20261;-72
2023/07/24 04:24:09;;;;;;;6.67;3.67;;;17.50;99.90;;;;;;4918189;29;20186;-74
2023/07/24 04:26:34;;;;;;;3.37;3.07;;;17.60;99.90;;;;;;4919577;29;20171;-72
2023/07/24 04:29:00;;;;;;;3.77;2.70;;;17.60;99.90;;;;;;4918833;29;20550;-72
2023/07/24 04:31:25;;;;;;;4.47;3.13;;;17.70;99.90;;;;;;4917554;29;20254;-73
2023/07/24 04:33:51;;;;;;;3.60;3.00;;;17.80;99.90;;;;;;4916737;29;20179;-74
2023/07/24 04:36:16;;;;;;;4.13;3.73;;;17.80;99.90;;;;;;4916861;29;20214;-75
2023/07/24 04:38:42;;;;;;;5.30;3.37;;;17.90;99.90;;;;;;4918686;29;20507;-74
2023/07/24 04:41:08;;;;;;;5.20;3.63;;;17.90;99.90;;;;;;4918854;29;20257;-72
2023/07/24 04:43:34;;;;;;;4.87;2.57;;;18.10;99.90;;;;;;4901774;29;20237;-74
2023/07/24 04:45:59;;;;;;;5.70;3.67;;;18.20;99.90;;;;;;4918550;29;20724;-73
2023/07/24 04:48:25;;;;;;;7.83;3.67;;;18.30;99.90;;;;;;4919183;29;20522;-73
2023/07/24 04:50:55;;;;;;;4.80;3.23;;;18.40;99.90;;;;;;4919852;29;20519;-73
2023/07/24 04:53:20;;;;;;;3.93;2.20;;;18.40;99.90;;;;;;4919322;29;20181;-72
2023/07/24 04:55:46;;;;;;;4.10;2.60;;;18.50;99.90;;;;;;4919179;29;20521;-71
2023/07/24 04:58:13;;;;;;;2.10;1.87;;;18.60;99.90;;;;;;4919367;29;20231;-75
2023/07/24 05:00:38;;;;;;;2.97;2.27;;;18.70;99.90;;;;;;4919373;29;20430;-70
2023/07/24 05:03:06;;;;;;;2.80;2.53;;;18.80;99.90;;;;;;4919392;29;20383;-70
2023/07/24 05:05:31;;;;;;;2.83;2.63;;;18.80;99.90;;;;;;4901785;29;20211;-75
2023/07/24 05:07:57;;;;;;;4.03;2.43;;;18.80;99.90;;;;;;4919044;29;21002;-72
2023/07/24 05:10:23;;;;;;;3.07;2.80;;;18.80;99.90;;;;;;4919178;29;20185;-74
2023/07/24 05:12:48;;;;;;;3.13;2.83;;;18.80;99.90;;;;;;4918646;29;20545;-72
2023/07/24 05:15:16;;;;;;;4.40;3.30;;;18.80;99.90;;;;;;4918014;29;20206;-74
2023/07/24 05:17:45;;;;;;;5.43;3.40;;;18.80;99.90;;;;;;4918755;29;20315;-70
2023/07/24 05:20:11;;;;;;;4.53;2.87;;;18.90;99.90;;;;;;4901906;29;20423;-68
2023/07/24 05:22:37;;;;;;;5.23;3.40;;;19.00;99.90;;;;;;4918930;29;20897;-67
2023/07/24 05:25:02;;;;;;;3.10;2.60;;;19.10;99.90;;;;;;4918500;29;20438;-67
2023/07/24 05:27:29;;;;;;;3.93;2.83;;;19.10;99.90;;;;;;4918566;29;20229;-72
2023/07/24 05:29:55;;;;;;;2.90;2.60;;;19.30;99.90;;;;;;4917442;29;20178;-69
2023/07/24 05:32:20;;;;;;;3.90;2.83;;;19.30;99.90;;;;;;4901593;29;20397;-67
2023/07/24 05:34:46;;;;;;;4.80;3.80;;;19.40;99.90;;;;;;4918124;29;20727;-67
2023/07/24 05:37:11;;;;;;;4.03;2.57;;;19.50;99.90;;;;;;4918628;29;20288;-71
2023/07/24 05:39:37;;;;;;;3.80;3.07;;;19.50;99.90;;;;;;4918604;29;20226;-67
2023/07/24 05:42:03;;;;;;;4.10;3.30;;;19.60;99.90;;;;;;4918254;29;20515;-67
2023/07/24 05:44:29;;;;;;;4.90;2.53;;;19.60;99.90;;;;;;4918047;29;20197;-67
2023/07/24 05:46:54;;;;;;;5.87;2.60;;;19.70;99.90;;;;;;4918574;29;20414;-71
2023/07/24 05:49:20;;;;;;;3.03;2.70;;;19.70;99.90;;;;;;4918396;29;20182;-67
2023/07/24 05:51:45;;;;;;;3.50;2.57;;;19.70;99.90;;;;;;4901315;29;20181;-67
2023/07/24 05:54:11;;;;;;;3.47;2.70;;;19.80;99.90;;;;;;4900825;29;20581;-66
2023/07/24 05:56:36;;;;;;;2.90;2.50;;;19.70;99.90;;;;;;4917665;29;20560;-64
2023/07/24 05:59:02;;;;;;;4.20;3.23;;;19.80;99.90;;;;;;4918283;29;20174;-64
2023/07/24 06:01:27;;;;;;;5.33;3.40;;;19.80;99.90;;;;;;4918047;29;20175;-64
2023/07/24 06:03:53;;;;;;;3.40;3.10;;;19.80;99.90;;;;;;4917909;29;20257;-65
2023/07/24 06:06:19;;;;;;;4.63;3.47;;;19.90;99.90;;;;;;4917820;29;20225;-65
2023/07/24 06:08:45;;;;;;;6.53;2.80;;;19.90;99.90;;;;;;4918029;29;20578;-67
2023/07/24 06:11:10;;;;;;;3.50;3.20;;;19.90;99.90;;;;;;4900588;29;20197;-69
2023/07/24 06:13:36;;;;;;;3.10;2.57;;;20.00;99.90;;;;;;4917651;29;20178;-69
2023/07/24 06:16:01;;;;;;;4.53;3.07;;;20.00;99.90;;;;;;4917660;29;20214;-69
2023/07/24 06:18:27;;;;;;;3.53;3.23;;;20.10;99.90;;;;;;4917811;29;20233;-69
2023/07/24 06:20:53;;;;;;;3.47;2.23;;;20.20;99.90;;;;;;4900753;29;20181;-69
2023/07/24 06:23:19;;;;;;;3.67;2.77;;;20.30;99.90;;;;;;4916924;29;20182;-70
2023/07/24 06:25:44;;;;;;;3.80;2.97;;;20.30;99.90;;;;;;4916987;29;20537;-70
2023/07/24 06:28:10;;;;;;;2.30;2.10;;;20.40;99.90;;;;;;4915933;29;20178;-69
2023/07/24 06:30:36;;;;;;;3.90;2.77;;;20.50;99.90;;;;;;4899679;29;20221;-68
2023/07/24 06:33:01;;;;;;;5.13;2.83;;;20.50;99.90;;;;;;4916941;29;20209;-72
2023/07/24 06:35:27;;;;;;;2.90;2.70;;;20.60;99.90;;;;;;4915952;29;20668;-72
2023/07/24 06:37:52;;;;;;;3.93;2.80;;;20.60;99.90;;;;;;4916795;29;20296;-69
2023/07/24 06:40:18;;;;;;;3.20;2.90;;;20.70;99.90;;;;;;4917172;29;20637;-69
2023/07/24 06:42:45;;;;;;;2.50;2.30;;;20.70;99.90;;;;;;4915855;29;20190;-70
2023/07/24 06:45:10;;;;;;;3.00;2.23;;;20.80;99.90;;;;;;4916976;29;20198;-69
2023/07/24 06:47:36;;;;;;;3.43;2.80;;;20.90;99.90;;;;;;4900355;29;20449;-69
2023/07/24 06:50:02;;;;;;;3.33;2.40;;;21.00;99.90;;;;;;4917423;29;20205;-69
2023/07/24 06:52:28;;;;;;;4.20;2.30;;;21.10;99.90;;;;;;4916214;29;20298;-69
2023/07/24 06:54:53;;;;;;;6.67;3.33;;;21.20;99.90;;;;;;4916448;29;21018;-68
2023/07/24 06:57:19;;;;;;;5.90;3.20;;;21.20;99.90;;;;;;4917424;29;20182;-71
2023/07/24 06:59:44;;;;;;;9.60;2.70;;;21.40;99.90;;;;;;4917435;29;20175;-68
2023/07/24 07:02:10;;;;;;;2.47;2.27;;;21.50;99.90;;;;;;4917252;29;20199;-68
2023/07/24 07:04:36;;;;;;;2.60;2.40;;;21.60;99.90;;;;;;4916810;29;20242;-69
2023/07/24 07:07:01;;;;;;;2.60;2.27;;;21.70;99.90;;;;;;4917134;29;20190;-69
2023/07/24 07:09:27;;;;;;;3.53;2.80;;;21.70;99.90;;;;;;4916590;29;20183;-69
2023/07/24 07:11:52;;;;;;;3.83;2.53;;;21.60;99.90;;;;;;4900216;29;20186;-71
2023/07/24 07:14:18;;;;;;;4.87;3.03;;;21.60;99.90;;;;;;4916672;29;20285;-69
2023/07/24 07:16:44;;;;;;;3.60;2.70;;;21.60;99.90;;;;;;4916948;29;20202;-69
2023/07/24 07:19:10;;;;;;;4.40;3.50;;;21.60;99.90;;;;;;4917141;29;20170;-69
2023/07/24 07:21:35;;;;;;;4.93;2.87;;;21.60;99.90;;;;;;4917284;29;20432;-69
2023/07/24 07:24:01;;;;;;;3.63;2.67;;;21.70;99.90;;;;;;4915892;29;20206;-68
2023/07/24 07:26:26;;;;;;;2.90;2.47;;;21.70;99.90;;;;;;4916384;29;20684;-71
2023/07/24 07:28:52;;;;;;;3.43;3.10;;;21.70;99.90;;;;;;4916687;29;20192;-69
2023/07/24 07:31:17;;;;;;;4.53;3.63;;;21.80;99.90;;;;;;4917136;29;20182;-69
2023/07/24 07:33:43;;;;;;;3.70;2.70;;;21.80;99.90;;;;;;4915464;29;20195;-68
2023/07/24 07:36:11;;;;;;;3.63;3.10;;;21.80;99.90;;;;;;4916855;29;20243;-68
2023/07/24 07:38:38;;;;;;;3.00;2.70;;;21.80;99.90;;;;;;4916714;29;20178;-69
2023/07/24 07:41:05;;;;;;;3.30;2.43;;;21.80;99.90;;;;;;4916572;29;20781;-69
2023/07/24 07:43:31;;;;;;;3.27;2.50;;;21.90;99.90;;;;;;4914930;29;20897;-68
2023/07/24 07:45:58;;;;;;;3.33;3.00;;;21.90;99.90;;;;;;4916827;29;20471;-69
2023/07/24 07:48:23;;;;;;;3.67;3.37;;;21.90;99.90;;;;;;4899987;29;20185;-69
2023/07/24 07:50:52;;;;;;;4.67;2.93;;;21.90;99.90;;;;;;4916924;29;20416;-70
2023/07/24 07:53:18;;;;;;;3.87;3.47;;;21.90;99.90;;;;;;4916374;29;20179;-68
2023/07/24 07:55:43;;;;;;;3.27;3.00;;;21.90;99.90;;;;;;4899634;29;20497;-68
2023/07/24 07:58:09;;;;;;;4.30;3.07;;;22.00;99.90;;;;;;4916739;29;20262;-68
2023/07/24 08:00:34;;;;;;;3.10;2.90;;;22.10;99.90;;;;;;4916726;29;20177;-70
2023/07/24 08:03:00;;;;;;;4.87;3.77;;;22.10;99.90;;;;;;4916877;29;20203;-68
2023/07/24 08:05:26;;;;;;;4.63;3.70;;;22.20;99.90;;;;;;4916261;29;20208;-69
2023/07/24 08:07:51;;;;;;;4.03;2.57;;;22.40;99.90;;;;;;4916221;29;20301;-68
2023/07/24 08:10:17;;;;;;;3.87;3.40;;;22.40;99.90;;;;;;4899479;29;20182;-67
2023/07/24 08:12:43;;;;;;;3.27;2.93;;;22.50;99.90;;;;;;4917050;29;20183;-69
2023/07/24 08:15:09;;;;;;;3.93;3.53;;;22.50;99.90;;;;;;4916084;29;20199;-69
2023/07/24 08:17:35;;;;;;;3.67;2.83;;;22.50;99.90;;;;;;4916143;29;20423;-69
2023/07/24 08:20:01;;;;;;;2.60;2.30;;;22.50;99.90;;;;;;4900111;29;20432;-69
2023/07/24 08:22:27;;;;;;;3.83;2.70;;;22.50;99.90;;;;;;4920029;29;20170;-69
2023/07/24 08:24:52;;;;;;;3.77;3.13;;;22.40;99.90;;;;;;4919387;29;20486;-69
2023/07/24 08:27:18;;;;;;;4.00;2.83;;;22.40;99.90;;;;;;4918687;29;20189;-69
2023/07/24 08:29:44;;;;;;;3.10;2.80;;;22.30;99.90;;;;;;4901568;29;20182;-69
2023/07/24 08:32:09;;;;;;;3.50;3.07;;;22.20;99.90;;;;;;4918498;29;20183;-69
2023/07/24 08:34:35;;;;;;;6.90;4.23;;;22.10;99.90;;;;;;4918082;29;20672;-69
2023/07/24 08:37:00;;;;;;;3.47;2.57;;;21.90;99.90;;;;;;4918053;29;20214;-69
2023/07/24 08:39:26;;;;;;;3.87;3.53;;;21.80;99.90;;;;;;4919020;29;20187;-69
2023/07/24 08:41:52;;;;;;;4.63;3.37;;;21.50;99.90;;;;;;4919098;29;20202;-70
2023/07/24 08:44:17;;;;;;;3.33;3.13;;;21.40;99.90;;;;;;4918393;29;20182;-69
2023/07/24 08:46:45;;;;;;;6.97;4.47;;;21.20;99.90;;;;;;4919400;29;20201;-69
2023/07/24 08:49:15;;;;;;;3.77;3.37;;;21.20;99.90;;;;;;4919379;29;20193;-68
2023/07/24 08:51:42;;;;;;;2.83;2.60;;;21.10;99.90;;;;;;4919268;29;20422;-68
2023/07/24 08:54:08;;;;;;;3.10;2.83;;;21.10;99.90;;;;;;4918878;29;20784;-68
2023/07/24 08:56:35;;;;;;;4.70;3.57;;;21.20;99.90;;;;;;4919694;29;20524;-69
2023/07/24 08:59:01;;;;;;;4.27;3.60;;;21.10;99.90;;;;;;4919312;29;20410;-69
2023/07/24 09:01:27;;;;;;;4.03;3.30;;;21.20;99.90;;;;;;4919073;29;20984;-69
2023/07/24 09:03:52;;;;;;;5.03;3.53;;;21.20;99.90;;;;;;4918779;29;20265;-68
2023/07/24 09:06:19;;;;;;;7.23;5.23;;;21.10;99.90;;;;;;4919053;29;20306;-70
2023/07/24 09:08:44;;;;;;;8.23;5.97;;;21.00;99.90;;;;;;4919261;29;20233;-70
2023/07/24 09:11:14;;;;;;;6.23;5.63;;;21.10;99.90;;;;;;4919148;29;20920;-70
2023/07/24 09:13:42;;;;;;;4.70;3.60;;;21.20;99.90;;;;;;4918288;29;20205;-69
2023/07/24 09:16:07;;;;;;;4.67;4.00;;;21.40;99.90;;;;;;4918993;29;20457;-69
2023/07/24 09:18:43;;;;;;;4.67;3.27;;;21.50;99.90;;;;;;4918869;29;20815;-69
2023/07/24 09:21:11;;;;;;;4.77;3.37;;;21.70;99.90;;;;;;4919055;29;20217;-70
2023/07/24 09:23:40;;;;;;;6.80;3.87;;;21.80;99.90;;;;;;4901527;29;20414;-67
2023/07/24 09:26:07;;;;;;;2.50;2.30;;;22.00;99.90;;;;;;4918441;29;20462;-70
2023/07/24 09:28:33;;;;;;;3.50;2.70;;;22.30;99.90;;;;;;4918655;29;20444;-70
2023/07/24 09:31:03;;;;;;;2.63;2.40;;;22.70;99.90;;;;;;4918450;29;20432;-69
2023/07/24 09:33:37;;;;;;;4.80;2.37;;;23.00;99.90;;;;;;4918838;29;20425;-69
2023/07/24 09:36:04;;;;;;;2.33;2.13;;;23.30;99.90;;;;;;4903647;29;20451;-68
2023/07/24 09:38:30;;;;;;;2.80;2.47;;;23.50;99.90;;;;;;4918563;29;20917;-71
2023/07/24 09:40:57;;;;;;;4.37;2.30;;;23.70;99.90;;;;;;4918254;29;20397;-69
2023/07/24 09:43:23;;;;;;;2.40;2.20;;;24.00;99.90;;;;;;4918372;29;20185;-68
2023/07/24 09:45:50;;;;;;;3.80;3.17;;;24.20;99.90;;;;;;4918102;29;20450;-71
2023/07/24 09:48:17;;;;;;;4.20;2.77;;;24.30;99.90;;;;;;4909714;29;20451;-70
2023/07/24 09:50:48;;;;;;;2.70;2.50;;;24.30;99.90;;;;;;4916942;29;20521;-69
2023/07/24 09:53:33;;;;;;;2.80;2.60;;;24.20;99.90;;;;;;4918044;29;20476;-69
2023/07/24 09:56:05;;;;;;;3.13;2.83;;;24.10;99.90;;;;;;4917179;29;20478;-68
2023/07/24 09:58:34;;;;;;;2.97;2.70;;;24.00;99.90;;;;;;4918413;29;20425;-69
2023/07/24 10:01:08;;;;;;;3.00;2.80;;;23.90;99.90;;;;;;4920267;29;20423;-69
2023/07/24 10:03:48;;;;;;;3.40;2.90;;;23.80;99.90;;;;;;4917790;29;20488;-68
2023/07/24 10:06:16;;;;;;;6.00;5.33;;;23.70;99.90;;;;;;4917536;29;20798;-69
2023/07/24 10:08:42;;;;;;;4.93;3.57;;;23.60;99.90;;;;;;4918577;29;20578;-70
2023/07/24 10:11:10;;;;;;;2.80;2.53;;;23.50;99.90;;;;;;4918244;29;20520;-69
2023/07/24 10:13:37;;;;;;;3.77;3.13;;;23.30;99.90;;;;;;4918301;29;20444;-69
2023/07/24 10:16:06;;;;;;;2.60;2.27;;;23.10;99.90;;;;;;4917628;29;20444;-70
2023/07/24 10:18:45;;;;;;;3.20;2.30;;;23.10;99.90;;;;;;4916293;29;20477;-68
2023/07/24 10:21:11;;;;;;;3.10;2.80;;;22.90;99.90;;;;;;4915738;29;20437;-68
2023/07/24 10:23:42;;;;;;;4.33;2.77;;;22.80;99.90;;;;;;4917641;29;20773;-67
2023/07/24 10:26:08;;;;;;;2.50;2.30;;;22.70;99.90;;;;;;4925853;29;20466;-67
2023/07/24 10:28:39;;;;;;;2.37;2.17;;;22.50;99.90;;;;;;4918669;29;20467;-69
2023/07/24 10:31:19;;;;;;;2.40;2.20;;;22.30;99.90;;;;;;4916906;29;20460;-70
2023/07/24 10:33:45;;;;;;;2.70;2.40;;;22.20;99.90;;;;;;4913538;29;20871;-67
2023/07/24 10:36:13;;;;;;;2.50;2.03;;;22.00;99.90;;;;;;4916202;29;20470;-68
2023/07/24 10:38:43;;;;;;;2.47;2.00;;;22.00;99.90;;;;;;4916976;29;20427;-68
2023/07/24 10:41:10;;;;;;;3.30;2.63;;;21.90;99.90;;;;;;4917046;29;20433;-71
2023/07/24 10:43:44;;;;;;;2.33;1.90;;;21.80;99.90;;;;;;4915080;29;20458;-68
2023/07/24 10:46:10;;;;;;;2.97;2.73;;;21.80;99.90;;;;;;4907637;29;21020;-69
2023/07/24 10:48:36;;;;;;;4.10;3.70;;;21.70;99.90;;;;;;4917133;29;20415;-68
2023/07/24 10:51:09;;;;;;;3.50;3.03;;;21.70;99.90;;;;;;4916758;29;20506;-69
2023/07/24 10:53:37;;;;;;;2.77;2.40;;;21.60;99.90;;;;;;4916989;29;20752;-69
2023/07/24 10:56:04;;;;;;;3.20;2.30;;;21.50;99.90;;;;;;4916693;29;20994;-69
2023/07/24 10:58:31;;;;;;;3.60;2.70;;;21.40;99.90;;;;;;4917378;29;20817;-69
2023/07/24 11:00:57;;;;;;;2.63;2.43;;;21.30;99.90;;;;;;4917229;29;20393;-69
2023/07/24 11:03:24;;;;;;;4.63;2.93;;;21.30;99.90;;;;;;4916546;29;20487;-68
2023/07/24 11:05:50;;;;;;;3.30;3.00;;;21.20;99.90;;;;;;4917649;29;20438;-68
2023/07/24 11:08:18;;;;;;;2.47;2.27;;;21.10;99.90;;;;;;4900214;29;20442;-69
2023/07/24 11:10:54;;;;;;;2.83;2.47;;;21.00;99.90;;;;;;4916660;29;20174;-69
2023/07/24 11:13:25;;;;;;;2.67;2.47;;;20.90;99.90;;;;;;4899631;29;20856;-69
2023/07/24 11:15:52;;;;;;;3.70;2.40;;;20.70;99.90;;;;;;4916735;29;20549;-70
2023/07/24 11:18:20;;;;;;;3.10;2.60;;;20.60;99.90;;;;;;4917048;29;20901;-69
2023/07/24 11:20:50;;;;;;;3.53;2.23;;;20.40;99.90;;;;;;4917095;29;20410;-68
2023/07/24 11:23:16;;;;;;;3.40;2.60;;;20.20;99.90;;;;;;4916660;29;20399;-69
2023/07/24 11:25:42;;;;;;;3.33;2.57;;;20.00;99.90;;;;;;4916542;29;20456;-69
2023/07/24 11:28:09;;;;;;;3.37;3.00;;;19.90;99.90;;;;;;4916881;29;20776;-68
2023/07/24 11:30:35;;;;;;;4.30;2.97;;;19.70;99.90;;;;;;4916940;29;20257;-69
2023/07/24 11:33:03;;;;;;;2.70;2.33;;;19.60;99.90;;;;;;4916777;29;20432;-69
2023/07/24 11:35:29;;;;;;;4.23;3.80;;;19.50;99.90;;;;;;4916189;29;20433;-69
2023/07/24 11:37:55;;;;;;;3.20;2.90;;;19.50;99.90;;;;;;4916421;29;20772;-69
2023/07/24 11:40:20;;;;;;;3.80;3.03;;;19.40;99.90;;;;;;4916659;29;20430;-68
2023/07/24 11:42:49;;;;;;;3.37;2.57;;;19.40;99.90;;;;;;4916782;29;20178;-69
2023/07/24 11:45:14;;;;;;;3.13;2.83;;;19.40;99.90;;;;;;4915535;29;20194;-67
2023/07/24 11:47:48;;;;;;;2.90;2.60;;;19.30;99.90;;;;;;4916833;29;20432;-67
2023/07/24 11:50:15;;;;;;;3.53;2.40;;;19.40;99.90;;;;;;4916918;29;20189;-68
2023/07/24 11:52:43;;;;;;;4.60;3.37;;;19.60;99.90;;;;;;4916935;29;20415;-67
2023/07/24 11:55:11;;;;;;;2.47;2.10;;;19.90;99.90;;;;;;4917189;29;20457;-67
2023/07/24 11:57:36;;;;;;;4.00;3.47;;;20.20;99.90;;;;;;4919878;29;20813;-66
2023/07/24 12:00:03;;;;;;;3.33;3.03;;;20.40;99.90;;;;;;4920406;29;20418;-67
2023/07/24 12:02:31;;;;;;;2.30;2.10;;;20.70;99.90;;;;;;4919562;29;20170;-68
2023/07/24 12:04:58;;;;;;;2.50;2.30;;;20.80;99.90;;;;;;4918577;29;20576;-66
2023/07/24 12:07:30;;;;;;;3.57;2.40;;;20.90;99.90;;;;;;4920104;29;20429;-67
2023/07/24 12:09:56;;;;;;;4.03;2.83;;;20.80;99.90;;;;;;4919717;29;20949;-66
2023/07/24 12:12:21;;;;;;;1.90;1.80;;;20.70;99.90;;;;;;4902884;29;20401;-64
2023/07/24 12:14:47;;;;;;;2.90;2.60;;;20.60;99.90;;;;;;4919642;29;20200;-65
2023/07/24 12:17:18;;;;;;;3.63;2.47;;;20.50;99.90;;;;;;4919364;29;20206;-68
2023/07/24 12:19:44;;;;;;;3.30;2.97;;;20.40;99.90;;;;;;4918870;29;20210;-68
2023/07/24 12:22:09;;;;;;;2.90;2.60;;;20.30;99.90;;;;;;4919563;29;20764;-71
2023/07/24 12:24:35;;;;;;;3.40;2.40;;;20.30;99.90;;;;;;4917593;29;20281;-70
2023/07/24 12:27:00;;;;;;;2.87;2.67;;;20.30;99.90;;;;;;4919157;29;20186;-70
2023/07/24 12:29:26;;;;;;;3.50;3.20;;;20.30;99.90;;;;;;4918565;29;20182;-68
2023/07/24 12:31:52;;;;;;;2.87;2.20;;;20.30;99.90;;;;;;4918997;29;20178;-72
2023/07/24 12:34:17;;;;;;;3.00;2.70;;;20.30;99.90;;;;;;4918606;29;20593;-70
2023/07/24 12:36:43;;;;;;;2.53;2.33;;;20.40;99.90;;;;;;4901615;29;20620;-66
2023/07/24 12:39:09;;;;;;;3.37;2.97;;;20.50;99.90;;;;;;4918750;29;20229;-65
2023/07/24 12:41:34;;;;;;;4.60;2.80;;;20.60;99.90;;;;;;4917988;29;20672;-64
2023/07/24 12:44:00;;;;;;;5.93;4.67;;;20.70;99.90;;;;;;4918566;29;20178;-64
2023/07/24 12:46:25;;;;;;;5.60;3.50;;;20.80;99.90;;;;;;4918472;29;20599;-65
2023/07/24 12:48:51;;;;;;;4.03;3.63;;;20.90;99.90;;;;;;4919102;29;20191;-64
2023/07/24 12:51:17;;;;;;;3.77;3.37;;;21.00;99.90;;;;;;4919079;29;20195;-64
2023/07/24 12:53:42;;;;;;;2.80;2.23;;;21.00;99.90;;;;;;4917926;29;20187;-64
2023/07/24 12:56:08;;;;;;;2.97;2.67;;;21.00;99.90;;;;;;4918606;29;20213;-63
2023/07/24 12:58:33;;;;;;;2.50;2.30;;;21.10;99.90;;;;;;4919020;29;20180;-61
2023/07/24 13:00:59;;;;;;;2.70;2.50;;;21.20;99.90;;;;;;4918631;29;20182;-62
2023/07/24 13:03:24;;;;;;;2.73;2.10;;;21.30;99.90;;;;;;4918243;29;20197;-63
2023/07/24 13:05:50;;;;;;;2.80;2.60;;;21.40;99.90;;;;;;4917542;29;20227;-63
2023/07/24 13:08:15;;;;;;;3.80;2.10;;;21.60;99.90;;;;;;4918326;29;20198;-64
2023/07/24 13:10:41;;;;;;;3.60;3.20;;;21.80;99.90;;;;;;4917937;29;20190;-64
2023/07/24 13:13:08;;;;;;;3.07;2.87;;;22.00;99.90;;;;;;4918994;29;20589;-63
2023/07/24 13:15:33;;;;;;;2.03;1.83;;;22.20;99.90;;;;;;4916804;29;20198;-63
2023/07/24 13:17:59;;;;;;;3.00;2.80;;;22.40;99.90;;;;;;4918139;29;20494;-63
2023/07/24 13:20:25;;;;;;;2.60;2.40;;;22.60;99.90;;;;;;4918422;29;20182;-66
2023/07/24 13:22:50;;;;;;;3.70;2.77;;;22.70;99.90;;;;;;4917806;29;20189;-62
2023/07/24 13:25:16;;;;;;;3.03;2.83;;;22.90;99.90;;;;;;4918014;29;20457;-65
2023/07/24 13:27:42;;;;;;;2.77;2.57;;;23.10;99.90;;;;;;4918512;29;20178;-62
2023/07/24 13:30:07;;;;;;;2.67;2.27;;;23.20;99.90;;;;;;4918225;29;20178;-64
2023/07/24 13:32:33;;;;;;;2.83;2.60;;;23.40;99.90;;;;;;4918225;29;20187;-63
2023/07/24 13:34:59;;;;;;;3.40;3.10;;;23.50;99.90;;;;;;4918222;29;20433;-63
2023/07/24 13:37:25;;;;;;;2.53;2.13;;;23.60;99.90;;;;;;4928024;29;20198;-63
2023/07/24 13:39:51;;;;;;;2.57;1.90;;;23.80;99.90;;;;;;4917816;29;20905;-63
2023/07/24 13:42:17;;;;;;;2.53;1.77;;;23.90;99.90;;;;;;4917838;29;20430;-64
2023/07/24 13:44:42;;;;;;;2.10;1.77;;;24.00;99.90;;;;;;4917073;29;20194;-62
2023/07/24 13:47:08;;;;;;;2.83;2.63;;;24.00;99.90;;;;;;4918103;29;20534;-63
2023/07/24 13:49:34;;;;;;;3.50;2.60;;;24.10;99.90;;;;;;4923454;29;20181;-64
2023/07/24 13:51:59;;;;;;;2.20;1.80;;;24.20;99.90;;;;;;4921116;29;20598;-65
2023/07/24 13:54:25;;;;;;;1.40;1.30;;;24.30;99.90;;;;;;4918127;29;20269;-63
2023/07/24 13:56:50;;;;;;;2.23;2.03;;;24.40;99.90;;;;;;4918236;29;20733;-66
2023/07/24 13:59:16;;;;;;;2.00;1.80;;;24.40;99.90;;;;;;4918404;29;20581;-62
2023/07/24 14:01:41;;;;;;;3.13;2.83;;;24.50;99.90;;;;;;4918276;29;20182;-64
2023/07/24 14:04:07;;;;;;;1.87;1.73;;;24.60;99.90;;;;;;4917859;29;20180;-63
2023/07/24 14:06:33;;;;;;;1.97;1.83;;;24.80;99.90;;;;;;4917512;29;20245;-66
2023/07/24 14:08:58;;;;;;;2.10;1.97;;;24.80;99.90;;;;;;4918042;29;20187;-65
2023/07/24 14:11:26;;;;;;;2.60;2.00;;;25.00;99.90;;;;;;4918187;29;20182;-63
2023/07/24 14:13:52;;;;;;;1.67;1.47;;;25.20;99.90;;;;;;4917751;29;20636;-63
2023/07/24 14:16:17;;;;;;;2.10;2.00;;;25.30;99.90;;;;;;4917955;29;20468;-64
2023/07/24 14:18:43;;;;;;;4.03;2.30;;;25.50;99.90;;;;;;4917241;29;20702;-65
2023/07/24 14:21:09;;;;;;;1.83;1.73;;;25.50;99.90;;;;;;4916656;29;20193;-65
2023/07/24 14:23:35;;;;;;;3.37;3.07;;;25.50;99.90;;;;;;4917260;29;20186;-65
2023/07/24 14:26:00;;;;;;;2.40;2.20;;;25.40;99.90;;;;;;4917017;29;20852;-65
2023/07/24 14:28:26;;;;;;;1.83;1.73;;;25.40;99.90;;;;;;4917613;29;20178;-65
2023/07/24 14:30:51;;;;;;;2.00;1.90;;;25.50;99.90;;;;;;4913062;29;20188;-64
2023/07/24 14:33:17;;;;;;;1.90;1.80;;;25.40;99.90;;;;;;4898757;29;20175;-63
2023/07/24 14:35:43;;;;;;;2.20;2.00;;;25.30;99.90;;;;;;4912981;29;20206;-63
2023/07/24 14:38:08;;;;;;;2.70;1.90;;;25.20;99.90;;;;;;4917342;29;20179;-63
2023/07/24 14:40:34;;;;;;;1.90;1.50;;;25.10;99.90;;;;;;4917288;29;20205;-63
2023/07/24 14:42:59;;;;;;;1.77;1.67;;;25.00;99.90;;;;;;4917517;29;20170;-65
2023/07/24 14:45:25;;;;;;;2.33;2.13;;;24.90;99.90;;;;;;4907635;29;20203;-64
2023/07/24 14:47:51;;;;;;;2.13;1.97;;;24.80;99.90;;;;;;4916256;29;20185;-65
2023/07/24 14:50:17;;;;;;;2.20;1.93;;;24.80;99.90;;;;;;4914073;29;20668;-67
2023/07/24 14:52:43;;;;;;;2.40;2.20;;;24.90;99.90;;;;;;4917343;29;20192;-63
2023/07/24 14:55:09;;;;;;;3.10;1.73;;;24.90;99.90;;;;;;4916802;29;20206;-66
2023/07/24 14:57:35;;;;;;;1.50;1.40;;;24.90;99.90;;;;;;4917055;29;20429;-63
2023/07/24 15:00:01;;;;;;;3.17;2.17;;;25.00;99.90;;;;;;4917755;29;20174;-66
2023/07/24 15:02:27;;;;;;;2.20;1.63;;;25.10;99.90;;;;;;4917452;29;20885;-63
2023/07/24 15:04:52;;;;;;;3.00;1.87;;;25.10;99.90;;;;;;4916715;29;20202;-66
2023/07/24 15:07:18;;;;;;;1.67;1.50;;;25.10;99.90;;;;;;4916671;29;20680;-63
2023/07/24 15:09:44;;;;;;;1.70;1.60;;;25.10;99.90;;;;;;4917141;29;20265;-63
2023/07/24 15:12:09;;;;;;;1.30;1.20;;;24.90;99.90;;;;;;4917183;29;20629;-63
2023/07/24 15:14:35;;;;;;;3.60;3.30;;;24.90;99.90;;;;;;4916628;29;20743;-66
2023/07/24 15:17:00;;;;;;;2.10;1.63;;;24.80;99.90;;;;;;4917060;29;20282;-67
2023/07/24 15:19:26;;;;;;;1.73;1.63;;;24.70;99.90;;;;;;4917231;29;20205;-64
2023/07/24 15:21:52;;;;;;;1.57;1.47;;;24.80;99.90;;;;;;4916895;29;20202;-67
2023/07/24 15:24:18;;;;;;;1.60;1.50;;;24.70;99.90;;;;;;4916780;29;20641;-63
2023/07/24 15:26:46;;;;;;;3.70;2.03;;;24.60;99.90;;;;;;4917047;29;20186;-65
2023/07/24 15:29:14;;;;;;;2.27;1.73;;;24.50;99.90;;;;;;4918014;29;20396;-64
2023/07/24 15:31:40;;;;;;;1.70;1.60;;;24.50;99.90;;;;;;4920306;29;20412;-67
2023/07/24 15:34:06;;;;;;;2.27;2.00;;;24.40;99.90;;;;;;4920435;29;20441;-63
2023/07/24 15:36:33;;;;;;;4.03;2.07;;;24.40;99.90;;;;;;4920557;29;20461;-66
2023/07/24 15:38:59;;;;;;;1.93;1.83;;;24.20;99.90;;;;;;4921024;29;20910;-66
2023/07/24 15:41:24;;;;;;;1.70;1.60;;;24.10;99.90;;;;;;4921195;29;20445;-65
2023/07/24 15:43:50;;;;;;;1.33;1.23;;;24.00;99.90;;;;;;4920397;29;20174;-64
2023/07/24 15:46:16;;;;;;;2.17;2.07;;;23.90;99.90;;;;;;4920199;29;20210;-62
2023/07/24 15:48:41;;;;;;;1.90;1.50;;;23.80;99.90;;;;;;4920286;29;20179;-65
2023/07/24 15:51:07;;;;;;;1.87;1.73;;;23.70;99.90;;;;;;4920593;29;20692;-63
2023/07/24 15:53:32;;;;;;;1.70;1.60;;;23.50;99.90;;;;;;4920109;29;20553;-66
2023/07/24 15:55:58;;;;;;;2.40;2.30;;;23.50;99.90;;;;;;4919630;29;20206;-64
2023/07/24 15:58:23;;;;;;;4.50;2.73;;;23.40;99.90;;;;;;4919870;29;20179;-64
2023/07/24 16:00:49;;;;;;;2.40;2.20;;;23.30;99.90;;;;;;4919559;29;20181;-62
2023/07/24 16:03:15;;;;;;;2.10;1.90;;;23.30;99.90;;;;;;4920087;29;20202;-63
2023/07/24 16:05:40;;;;;;;3.67;2.57;;;23.30;99.90;;;;;;4919891;29;20221;-62
2023/07/24 16:08:06;;;;;;;2.27;1.93;;;23.30;99.90;;;;;;4920275;29;20614;-69
2023/07/24 16:10:32;;;;;;;1.90;1.80;;;23.30;99.90;;;;;;4920194;29;20216;-76
2023/07/24 16:12:58;;;;;;;1.60;1.50;;;23.30;99.90;;;;;;4920341;29;20368;-73
2023/07/24 16:15:23;;;;;;;1.67;1.30;;;23.40;99.90;;;;;;4919297;29;20936;-72
2023/07/24 16:17:49;;;;;;;1.80;1.70;;;23.40;99.90;;;;;;4919971;29;20514;-71
2023/07/24 16:20:15;;;;;;;2.40;2.20;;;23.30;99.90;;;;;;4919821;29;20262;-70
2023/07/24 16:22:40;;;;;;;2.10;1.90;;;23.30;99.90;;;;;;4920008;29;20561;-73
2023/07/24 16:25:06;;;;;;;1.20;1.07;;;23.30;99.90;;;;;;4902585;29;20199;-71
2023/07/24 16:27:32;;;;;;;1.63;1.40;;;23.20;99.90;;;;;;4919851;29;20707;-71
2023/07/24 16:29:58;;;;;;;1.60;1.50;;;23.20;99.90;;;;;;4918329;29;20433;-72
2023/07/24 16:32:24;;;;;;;1.67;1.57;;;23.10;99.90;;;;;;4919867;29;20536;-71
2023/07/24 16:34:50;;;;;;;4.60;3.70;;;23.10;99.90;;;;;;4919200;29;20213;-70
2023/07/24 16:37:16;;;;;;;6.33;3.90;;;22.90;99.90;;;;;;4919578;29;20501;-72
2023/07/24 16:39:41;;;;;;;1.97;1.70;;;22.90;99.90;;;;;;4920128;29;20406;-72
2023/07/24 16:42:07;;;;;;;1.67;1.57;;;22.80;99.90;;;;;;4918460;29;20170;-72
2023/07/24 16:44:32;;;;;;;4.93;1.77;;;22.80;99.90;;;;;;4918914;29;20238;-71
2023/07/24 16:46:58;;;;;;;1.47;1.37;;;22.70;99.90;;;;;;4918718;29;20569;-72